map of ROZ home
Great Circle Mapper logo
ROZ - Airport
Location
City:  Rota, Andalusia, Spain
Near (Alt.):Cádiz
Name:Naval Station Rota
ICAO / IATA:LERT / ROZ

Details
Type:Airport (Aerodrome, Airfield)
Use:Military, International (customs port of entry)
Latitude:36°38'43"N (36.645211)
Longitude:6°20'58"W (-6.349457)
Datum:WGS 1984
Elevation:86 ft (26 m)
Variation:1.72°W (WMM2015 magnetic declination)
0.12° annual change
Runways:1
Longest:12104 × 200 ft (3689 × 61 m), paved

Time
Time Zone:UTC+1 (DST+2)
Local Time:

Weather
METAR:LERT 260700Z VRB02KT CAVOK 18/11 Q1017 NOSIG

Related Locations
Nearby:
Farthest:NZPI: 12400 mi / 19956 km
Parakai, NZ

Find:

   beyond  
but within

Other Information
Maps:
NOTAMs:
Links:
Sources:

  
flag of Spain
flag of Andalusia
  

Airport Diagram

Airport diagram for ROZ

Airport diagram (OBSOLETE) from NGA

Sectional Chart

Flight Planning
at skyvector.com

Satellite Image

Google Maps Satellite View

 

Copyright © 2004-2015 Karl L. Swartz. All rights reserved.
The Great Circle Mapper name and logo are trademarks of the Great Circle Mapper.
All other trademarks mentioned herein belong to their respective owners.
Please see credits for attibutions and further copyright information.

  Follow gcmap on Facebook Follow gcmap on Twitter Follow gcmap on Google+

hCard Microformat

Geo Microformat